Main page
METAR-TAF:

METAR-TAF

Airports :

Nawabshah Airport

Nawabshah, Pakistan

latitude: 26-15N, longitude: 068-22E, elevation: 37 m

METAR: missing

Time: 08:40 (03:40 UTC)

Forecast

The report was made 4 hours and 40 minutes ago, at 23:00 UTC
Forecast valid from 24 at 00 UTC to 25 at 06 UTC
Wind 8 kt from the South with gusts up to 18 kt
Visibility: 5000 m
haze
From 24 at 2000 UTC
Wind 7 kt from the Southeast
Visibility: 3000 m
haze,

TAF: OPNH 232300Z 2400/2506 18008G18KT 5000 HZ NSC FM242000 14007KT 3000 HZ NSC

Weather observations and forecasts of more than 4000 airports (METAR and TAF reports).

The available stations are represented by yellow and red dots on the map.

Hover mouse over dot to see the name of the station.

Then click to see weather observations and forecasts.

To change the map : click on the green buttons with a black cross to zoom in, on the green button with a dash to zoom out, or on the green arrows for adjacent maps.


METAR-TAF: